Time;durP1;ratioP1;P1;durP2;ratioP2;P2;SDS_P1;SDS_P2;PMS_P1;PMS_P2;Temp;Humidity;BMP_temperature;BMP_pressure;BME280_temperature;BME280_humidity;BME280_pressure;Samples;Min_cycle;Max_cycle;Signal;HPM_P1;HPM_P2
2022/04/22 00:01:36;;;;;;;;;;;11.90;93.30;;;;;;5047127;28;36269;-55
2022/04/22 00:04:03;;;;;;;;;;;11.90;93.40;;;;;;5047699;28;38168;-55
2022/04/22 00:06:30;;;;;;;;;;;11.80;93.50;;;;;;5046604;28;36209;-55
2022/04/22 00:09:00;;;;;;;;;;;11.80;93.60;;;;;;5047456;28;35169;-55
2022/04/22 00:11:30;;;;;;;;;;;11.80;93.50;;;;;;5046738;28;38417;-55
2022/04/22 00:13:58;;;;;;;;;;;11.80;93.60;;;;;;5046123;28;38731;-55
2022/04/22 00:16:25;;;;;;;;;;;11.80;93.80;;;;;;5047847;28;36904;-55
2022/04/22 00:18:53;;;;;;;;;;;11.70;93.90;;;;;;5048563;28;36214;-55
2022/04/22 00:21:21;;;;;;;;;;;11.70;93.90;;;;;;5045542;28;37914;-55
2022/04/22 00:23:49;;;;;;;;;;;11.70;93.60;;;;;;5047616;28;36844;-55
2022/04/22 00:26:16;;;;;;;;;;;11.80;93.80;;;;;;5047506;28;36984;-56
2022/04/22 00:28:43;;;;;;;;;;;11.70;93.90;;;;;;5046969;28;36226;-55
2022/04/22 00:31:10;;;;;;;;;;;11.70;93.60;;;;;;5047478;28;39079;-55
2022/04/22 00:33:37;;;;;;;;;;;11.70;93.80;;;;;;5046463;28;37351;-55
2022/04/22 00:36:06;;;;;;;;;;;11.60;94.20;;;;;;5046206;28;35674;-55
2022/04/22 00:38:34;;;;;;;;;;;11.60;94.00;;;;;;5047067;28;35298;-55
2022/04/22 00:41:01;;;;;;;;;;;11.60;94.10;;;;;;5045975;28;36636;-56
2022/04/22 00:43:28;;;;;;;;;;;11.60;94.10;;;;;;5046928;28;37505;-55
2022/04/22 00:45:55;;;;;;;;;;;11.60;94.20;;;;;;5047190;28;36984;-55
2022/04/22 00:48:23;;;;;;;;;;;11.60;94.20;;;;;;5047626;28;38167;-55
2022/04/22 00:50:50;;;;;;;;;;;11.50;94.30;;;;;;5045966;28;37560;-55
2022/04/22 00:53:19;;;;;;;;;;;11.50;94.50;;;;;;5047415;28;36941;-55
2022/04/22 00:55:46;;;;;;;;;;;11.40;94.30;;;;;;5045629;28;37559;-55
2022/04/22 00:58:13;;;;;;;;;;;11.30;94.20;;;;;;5046874;28;36765;-55
2022/04/22 01:00:40;;;;;;;;;;;11.20;94.70;;;;;;5047097;28;38111;-54
2022/04/22 01:03:08;;;;;;;;;;;11.20;94.80;;;;;;5046696;28;37488;-55
2022/04/22 01:11:06;;;;;;;;;;;11.10;94.70;;;;;;5045885;28;39972;-55
2022/04/22 01:13:33;;;;;;;;;;;11.10;94.80;;;;;;5046564;28;36998;-55
2022/04/22 01:16:00;;;;;;;;;;;11.00;94.90;;;;;;5047049;28;36770;-55
2022/04/22 01:18:27;;;;;;;;;;;11.00;95.10;;;;;;5045869;28;36351;-55
2022/04/22 01:20:54;;;;;;;;;;;10.90;95.30;;;;;;5045945;28;37949;-55
2022/04/22 01:23:24;;;;;;;;;;;10.90;95.30;;;;;;5045856;28;36151;-55
2022/04/22 01:25:53;;;;;;;;;;;10.90;95.30;;;;;;5046374;28;37282;-55
2022/04/22 01:28:20;;;;;;;;;;;10.90;95.30;;;;;;5045507;28;37931;-55
2022/04/22 01:30:48;;;;;;;;;;;10.80;95.20;;;;;;5046704;28;37714;-55
2022/04/22 01:33:15;;;;;;;;;;;10.90;95.50;;;;;;5046892;28;38935;-55
2022/04/22 01:35:42;;;;;;;;;;;10.90;95.50;;;;;;5044662;28;37028;-55
2022/04/22 01:38:09;;;;;;;;;;;10.90;95.50;;;;;;5045969;28;36831;-55
2022/04/22 01:40:38;;;;;;;;;;;10.90;95.30;;;;;;5045277;28;37565;-55
2022/04/22 01:43:05;;;;;;;;;;;10.90;95.40;;;;;;5046089;28;37436;-62
2022/04/22 01:45:33;;;;;;;;;;;10.90;95.20;;;;;;5047006;28;36988;-62
2022/04/22 01:48:00;;;;;;;;;;;10.90;95.30;;;;;;5046158;28;36042;-62
2022/04/22 01:50:27;;;;;;;;;;;10.80;95.30;;;;;;5045302;28;37842;-63
2022/04/22 01:52:54;;;;;;;;;;;10.70;95.40;;;;;;5046435;28;38771;-55
2022/04/22 01:55:22;;;;;;;;;;;10.70;95.60;;;;;;5044417;28;36996;-55
2022/04/22 01:57:51;;;;;;;;;;;10.70;95.50;;;;;;5045644;28;36911;-55
2022/04/22 02:00:18;;;;;;;;;;;10.60;95.60;;;;;;5045697;28;39908;-55
2022/04/22 02:02:45;;;;;;;;;;;10.50;95.80;;;;;;5045169;28;39052;-62
2022/04/22 02:05:12;;;;;;;;;;;10.40;95.70;;;;;;5046329;28;36519;-55
2022/04/22 02:07:41;;;;;;;;;;;10.40;95.90;;;;;;5045298;28;37281;-55
2022/04/22 02:10:09;;;;;;;;;;;10.30;95.90;;;;;;5044218;28;39200;-55
2022/04/22 02:12:36;;;;;;;;;;;10.30;95.80;;;;;;5045818;28;36233;-55
2022/04/22 02:15:05;;;;;;;;;;;10.30;95.80;;;;;;5045024;28;38135;-62
2022/04/22 02:17:35;;;;;;;;;;;10.20;95.80;;;;;;5045463;28;36441;-62
2022/04/22 02:20:02;;;;;;;;;;;10.20;95.80;;;;;;5044625;28;37537;-55
2022/04/22 02:22:29;;;;;;;;;;;10.20;95.60;;;;;;5045761;28;37028;-55
2022/04/22 02:24:59;;;;;;;;;;;10.20;95.40;;;;;;5045274;28;37974;-62
2022/04/22 02:30:13;;;;;;;;;;;10.10;95.60;;;;;;5045658;28;37480;-62
2022/04/22 02:32:40;;;;;;;;;;;10.00;95.70;;;;;;5042181;28;37771;-63
2022/04/22 02:35:07;;;;;;;;;;;10.00;95.60;;;;;;5044713;28;37684;-62
2022/04/22 02:37:34;;;;;;;;;;;10.00;95.50;;;;;;5043177;28;36877;-62
2022/04/22 02:40:01;;;;;;;;;;;10.10;95.40;;;;;;5046946;28;36559;-56
2022/04/22 02:45:27;;;;;;;;;;;10.00;95.60;;;;;;5047916;28;37532;-55
2022/04/22 02:47:54;;;;;;;;;;;10.00;95.50;;;;;;5047769;28;35136;-55
2022/04/22 02:50:21;;;;;;;;;;;10.00;95.60;;;;;;5046094;28;38428;-55
2022/04/22 02:52:48;;;;;;;;;;;10.00;95.50;;;;;;5047726;28;37438;-56
2022/04/22 02:55:16;;;;;;;;;;;9.90;95.70;;;;;;5046381;28;37032;-55
2022/04/22 02:57:43;;;;;;;;;;;9.90;95.70;;;;;;5046934;28;37468;-56
2022/04/22 03:00:11;;;;;;;;;;;9.80;95.90;;;;;;5047930;28;36730;-55
2022/04/22 03:02:39;;;;;;;;;;;9.80;95.90;;;;;;5048507;28;37644;-56
2022/04/22 03:05:07;;;;;;;;;;;9.90;95.90;;;;;;5046606;28;39175;-56
2022/04/22 03:07:34;;;;;;;;;;;9.90;95.70;;;;;;5048556;28;36314;-56
2022/04/22 03:10:01;;;;;;;;;;;9.90;95.70;;;;;;5049535;28;36460;-56
2022/04/22 03:12:28;;;;;;;;;;;9.90;95.50;;;;;;5049266;28;37382;-54
2022/04/22 03:14:56;;;;;;;;;;;9.80;95.40;;;;;;5046997;28;35669;-55
2022/04/22 03:17:23;;;;;;;;;;;9.90;95.50;;;;;;5048604;28;35803;-55
2022/04/22 03:19:52;;;;;;;;;;;9.90;95.40;;;;;;5047735;28;38884;-55
2022/04/22 03:22:19;;;;;;;;;;;9.90;95.20;;;;;;5049101;28;37564;-55
2022/04/22 03:24:46;;;;;;;;;;;9.90;95.40;;;;;;5048743;28;35514;-55
2022/04/22 03:27:13;;;;;;;;;;;9.90;95.30;;;;;;5048820;28;36624;-56
2022/04/22 03:29:40;;;;;;;;;;;9.90;95.20;;;;;;5047986;28;36500;-55
2022/04/22 03:32:07;;;;;;;;;;;9.90;95.30;;;;;;5048091;28;37232;-56
2022/04/22 03:34:34;;;;;;;;;;;9.80;95.30;;;;;;5046067;28;35754;-56
2022/04/22 03:37:03;;;;;;;;;;;9.80;95.50;;;;;;5048965;28;38484;-55
2022/04/22 03:39:30;;;;;;;;;;;9.70;95.50;;;;;;5047974;28;39817;-55
2022/04/22 03:41:58;;;;;;;;;;;9.70;95.50;;;;;;5046641;28;38513;-55
2022/04/22 03:44:25;;;;;;;;;;;9.70;95.70;;;;;;5047299;28;36650;-55
2022/04/22 03:46:52;;;;;;;;;;;9.70;95.70;;;;;;5046932;28;38721;-55
2022/04/22 03:49:19;;;;;;;;;;;9.70;95.70;;;;;;5048089;28;37655;-55
2022/04/22 03:51:47;;;;;;;;;;;9.80;95.70;;;;;;5046886;28;38336;-55
2022/04/22 03:54:18;;;;;;;;;;;9.70;95.50;;;;;;5047494;28;36698;-55
2022/04/22 03:59:30;;;;;;;;;;;9.80;95.30;;;;;;5048400;28;38631;-55
2022/04/22 04:01:57;;;;;;;;;;;9.70;95.20;;;;;;5048403;28;38241;-55
2022/04/22 04:04:24;;;;;;;;;;;9.70;95.30;;;;;;5047531;28;36908;-55
2022/04/22 04:06:52;;;;;;;;;;;9.60;95.50;;;;;;5047840;28;38112;-55
2022/04/22 04:17:35;;;;;;;;;;;9.50;95.50;;;;;;5048083;28;37521;-55
2022/04/22 04:25:33;;;;;;;;;;;9.40;95.40;;;;;;5047433;28;37805;-56
2022/04/22 04:28:02;;;;;;;;;;;9.40;95.20;;;;;;5047543;28;36126;-56
2022/04/22 04:30:29;;;;;;;;;;;9.50;95.20;;;;;;5048292;28;36417;-56
2022/04/22 04:32:56;;;;;;;;;;;9.50;95.10;;;;;;5047470;28;37654;-56
2022/04/22 04:35:23;;;;;;;;;;;9.50;95.20;;;;;;5044998;28;36695;-55
2022/04/22 04:37:50;;;;;;;;;;;9.50;95.10;;;;;;5046280;28;36303;-55
2022/04/22 04:40:17;;;;;;;;;;;9.50;95.20;;;;;;5045414;28;37608;-55
2022/04/22 04:42:45;;;;;;;;;;;9.50;95.10;;;;;;5045725;28;37613;-56
2022/04/22 04:45:12;;;;;;;;;;;9.50;95.10;;;;;;5046089;28;37027;-55
2022/04/22 04:47:41;;;;;;;;;;;9.50;95.00;;;;;;5046907;28;36172;-55
2022/04/22 04:50:09;;;;;;;;;;;9.50;95.20;;;;;;5045976;28;38206;-55
2022/04/22 04:52:37;;;;;;;;;;;9.50;95.20;;;;;;5046004;28;36122;-56
2022/04/22 04:55:04;;;;;;;;;;;9.50;95.00;;;;;;5046159;28;39788;-55
2022/04/22 04:57:31;;;;;;;;;;;9.50;94.90;;;;;;5047275;28;37152;-55
2022/04/22 05:00:00;;;;;;;;;;;9.50;95.00;;;;;;5046536;28;36546;-56
2022/04/22 05:02:27;;;;;;;;;;;9.60;95.10;;;;;;5045709;28;37522;-63
2022/04/22 05:04:54;;;;;;;;;;;9.60;95.00;;;;;;5046429;28;37548;-62
2022/04/22 05:07:21;;;;;;;;;;;9.70;95.00;;;;;;5047118;28;35071;-63
2022/04/22 05:09:48;;;;;;;;;;;9.70;94.70;;;;;;5046900;28;39008;-62
2022/04/22 05:12:15;;;;;;;;;;;9.80;94.60;;;;;;5047209;28;39252;-62
2022/04/22 05:14:43;;;;;;;;;;;9.90;94.40;;;;;;5045932;28;36823;-62
2022/04/22 05:17:12;;;;;;;;;;;10.10;94.20;;;;;;5047274;28;36655;-63
2022/04/22 05:19:39;;;;;;;;;;;10.40;93.70;;;;;;5045833;28;38729;-62
2022/04/22 05:22:06;;;;;;;;;;;10.60;93.00;;;;;;5046888;28;36211;-63
2022/04/22 05:24:35;;;;;;;;;;;10.90;92.00;;;;;;5046428;28;37020;-62
2022/04/22 05:27:02;;;;;;;;;;;11.10;92.00;;;;;;5046087;28;36356;-55
2022/04/22 05:34:59;;;;;;;;;;;11.70;90.20;;;;;;5045569;28;39003;-55
2022/04/22 05:37:26;;;;;;;;;;;11.90;88.90;;;;;;5046541;28;35766;-56
2022/04/22 05:39:53;;;;;;;;;;;12.20;87.40;;;;;;5046428;28;38433;-55
2022/04/22 05:42:20;;;;;;;;;;;12.30;84.60;;;;;;5046349;28;38687;-55
2022/04/22 05:44:48;;;;;;;;;;;12.40;85.40;;;;;;5045102;28;37594;-56
2022/04/22 05:47:16;;;;;;;;;;;12.60;83.90;;;;;;5044924;28;37024;-55
2022/04/22 05:49:43;;;;;;;;;;;12.70;82.10;;;;;;5046501;28;36587;-55
2022/04/22 05:52:10;;;;;;;;;;;12.90;80.50;;;;;;5045103;28;38855;-55
2022/04/22 05:54:38;;;;;;;;;;;13.10;77.50;;;;;;5045335;28;35627;-56
2022/04/22 05:57:05;;;;;;;;;;;13.40;77.30;;;;;;5046052;28;35744;-55
2022/04/22 05:59:32;;;;;;;;;;;13.50;75.50;;;;;;5045684;28;37725;-55
2022/04/22 06:02:02;;;;;;;;;;;13.60;76.50;;;;;;5046139;28;38438;-55
2022/04/22 06:04:30;;;;;;;;;;;13.70;75.20;;;;;;5044838;28;36882;-62
2022/04/22 06:07:00;;;;;;;;;;;13.80;75.10;;;;;;5045111;28;36270;-62
2022/04/22 06:12:12;;;;;;;;;;;13.70;75.00;;;;;;5043307;28;38321;-62
2022/04/22 06:14:39;;;;;;;;;;;13.70;75.60;;;;;;5046586;28;38162;-63
2022/04/22 06:17:06;;;;;;;;;;;13.70;74.90;;;;;;5048929;28;35592;-62
2022/04/22 06:19:35;;;;;;;;;;;13.80;74.60;;;;;;5049134;28;38555;-62
2022/04/22 06:22:02;;;;;;;;;;;13.70;73.60;;;;;;5048799;28;38437;-62
2022/04/22 06:24:29;;;;;;;;;;;13.60;75.60;;;;;;5046884;28;36569;-62
2022/04/22 06:26:56;;;;;;;;;;;13.60;74.50;;;;;;5047385;28;37360;-62
2022/04/22 06:29:23;;;;;;;;;;;13.50;73.60;;;;;;5046037;28;37235;-62
2022/04/22 06:31:51;;;;;;;;;;;13.50;76.10;;;;;;5050233;27;36455;-61
2022/04/22 06:34:18;;;;;;;;;;;13.40;75.00;;;;;;5047963;28;36976;-62
2022/04/22 06:36:47;;;;;;;;;;;13.40;75.70;;;;;;5049297;28;36240;-62
2022/04/22 06:39:14;;;;;;;;;;;13.40;75.40;;;;;;5047402;28;37507;-62
2022/04/22 06:47:08;;;;;;;;;;;13.40;76.90;;;;;;5025397;28;36825;-63
2022/04/22 06:49:35;;;;;;;;;;;13.40;76.90;;;;;;5048158;28;38617;-63
2022/04/22 06:52:05;;;;;;;;;;;13.50;75.70;;;;;;5047264;28;36673;-63
2022/04/22 06:54:32;;;;;;;;;;;13.50;75.90;;;;;;5048311;28;36898;-63
2022/04/22 06:57:00;;;;;;;;;;;13.50;76.40;;;;;;5048405;28;36429;-56
2022/04/22 06:59:27;;;;;;;;;;;13.60;76.70;;;;;;5048749;28;38677;-56
2022/04/22 07:01:54;;;;;;;;;;;13.60;76.90;;;;;;5048478;28;37305;-56
2022/04/22 07:04:22;;;;;;;;;;;13.60;76.30;;;;;;5049318;28;36094;-56
2022/04/22 07:06:50;;;;;;;;;;;13.70;77.60;;;;;;5047302;28;37073;-57
2022/04/22 07:09:18;;;;;;;;;;;13.70;75.40;;;;;;5048165;28;37546;-56
2022/04/22 07:11:46;;;;;;;;;;;13.60;75.10;;;;;;5048821;28;38199;-56
2022/04/22 07:14:13;;;;;;;;;;;13.60;76.50;;;;;;5048743;28;35473;-57
2022/04/22 07:16:42;;;;;;;;;;;13.70;76.50;;;;;;5049002;28;37775;-57
2022/04/22 07:19:10;;;;;;;;;;;13.70;78.30;;;;;;5046355;28;40575;-56
2022/04/22 07:21:37;;;;;;;;;;;13.80;76.30;;;;;;5045211;28;39730;-56
2022/04/22 07:24:04;;;;;;;;;;;13.80;77.20;;;;;;5047522;28;36851;-56
2022/04/22 07:26:33;;;;;;;;;;;13.80;76.20;;;;;;5047756;28;36607;-56
2022/04/22 07:29:00;;;;;;;;;;;13.90;76.30;;;;;;5047017;28;39001;-57
2022/04/22 07:31:30;;;;;;;;;;;14.00;74.00;;;;;;5048259;28;37643;-57
2022/04/22 07:33:57;;;;;;;;;;;13.90;75.40;;;;;;5047097;28;37007;-56
2022/04/22 07:36:25;;;;;;;;;;;14.00;75.50;;;;;;5047433;28;37201;-56
2022/04/22 07:38:52;;;;;;;;;;;14.00;74.80;;;;;;5047735;28;38410;-56
2022/04/22 07:41:19;;;;;;;;;;;14.00;75.50;;;;;;5048166;28;37586;-56
2022/04/22 07:46:48;;;;;;;;;;;14.10;75.10;;;;;;5047880;28;37372;-56
2022/04/22 07:49:15;;;;;;;;;;;14.20;75.00;;;;;;5047454;28;37645;-57
2022/04/22 07:51:42;;;;;;;;;;;14.20;73.90;;;;;;5048091;28;37298;-57
2022/04/22 07:54:09;;;;;;;;;;;14.30;73.40;;;;;;5048188;28;37397;-56
2022/04/22 07:56:36;;;;;;;;;;;14.40;73.30;;;;;;5047241;28;36352;-56
2022/04/22 07:59:05;;;;;;;;;;;14.40;73.20;;;;;;5047332;28;37852;-55
2022/04/22 08:01:32;;;;;;;;;;;14.50;71.80;;;;;;5048674;28;37603;-56
2022/04/22 08:04:00;;;;;;;;;;;14.50;72.40;;;;;;5047885;28;37066;-56
2022/04/22 08:06:27;;;;;;;;;;;14.50;72.60;;;;;;5047178;28;36449;-57
2022/04/22 08:08:54;;;;;;;;;;;14.50;72.60;;;;;;5047461;28;38422;-56
2022/04/22 08:11:21;;;;;;;;;;;14.50;70.90;;;;;;5047826;28;37298;-62
2022/04/22 08:13:48;;;;;;;;;;;14.60;71.00;;;;;;5047401;28;36977;-62
2022/04/22 08:16:17;;;;;;;;;;;14.70;71.40;;;;;;5048375;28;36304;-62
2022/04/22 08:18:44;;;;;;;;;;;14.90;72.70;;;;;;5048519;28;37603;-62
2022/04/22 08:21:11;;;;;;;;;;;15.10;72.60;;;;;;5048205;28;38844;-62
2022/04/22 08:23:39;;;;;;;;;;;15.10;69.90;;;;;;5047738;28;37622;-62
2022/04/22 08:26:07;;;;;;;;;;;15.30;71.50;;;;;;5046869;28;35030;-63
2022/04/22 08:28:34;;;;;;;;;;;15.50;72.90;;;;;;5047520;28;38512;-63
2022/04/22 08:31:02;;;;;;;;;;;15.70;68.90;;;;;;5047920;28;38305;-63
2022/04/22 08:33:32;;;;;;;;;;;15.80;70.30;;;;;;5045680;28;36634;-62
2022/04/22 08:35:59;;;;;;;;;;;15.80;69.90;;;;;;5046768;28;40043;-63
2022/04/22 08:38:27;;;;;;;;;;;15.90;69.20;;;;;;4949182;28;39843;-62
2022/04/22 08:40:54;;;;;;;;;;;16.00;66.50;;;;;;4988006;27;45473;-62
2022/04/22 08:43:21;;;;;;;;;;;16.00;69.00;;;;;;5005031;27;43558;-63
2022/04/22 08:45:48;;;;;;;;;;;16.20;67.40;;;;;;5005174;27;43953;-62
2022/04/22 08:51:03;;;;;;;;;;;16.30;65.90;;;;;;4991498;28;38442;-56
2022/04/22 08:53:32;;;;;;;;;;;16.30;66.40;;;;;;5037259;28;37192;-56
2022/04/22 08:56:02;;;;;;;;;;;16.40;68.00;;;;;;5040284;28;36421;-56
2022/04/22 08:58:29;;;;;;;;;;;16.50;65.70;;;;;;5040363;28;37611;-56
2022/04/22 09:00:57;;;;;;;;;;;16.60;66.20;;;;;;5039959;28;36315;-56
2022/04/22 09:03:27;;;;;;;;;;;16.70;66.80;;;;;;5040643;27;37292;-56
2022/04/22 09:05:55;;;;;;;;;;;17.00;68.40;;;;;;5041329;28;36400;-56
2022/04/22 09:08:24;;;;;;;;;;;17.30;66.50;;;;;;5039231;28;38455;-56
2022/04/22 09:10:54;;;;;;;;;;;17.50;63.90;;;;;;5039603;28;36201;-56
2022/04/22 09:13:24;;;;;;;;;;;17.80;64.10;;;;;;5040253;28;38172;-55
2022/04/22 09:15:51;;;;;;;;;;;17.90;60.90;;;;;;5040056;28;36455;-55
2022/04/22 09:18:18;;;;;;;;;;;17.90;63.00;;;;;;5039010;28;38158;-62
2022/04/22 09:20:47;;;;;;;;;;;18.10;62.00;;;;;;5037899;28;37614;-62
2022/04/22 09:23:30;;;;;;;;;;;18.20;59.60;;;;;;5039179;28;37624;-63
2022/04/22 09:25:57;;;;;;;;;;;18.30;63.00;;;;;;5038924;28;35159;-62
2022/04/22 09:28:24;;;;;;;;;;;18.40;60.10;;;;;;5038483;28;38562;-62
2022/04/22 09:30:58;;;;;;;;;;;18.40;56.80;;;;;;5039413;28;37332;-63
2022/04/22 09:33:25;;;;;;;;;;;18.40;59.80;;;;;;5037362;28;36563;-62
2022/04/22 09:44:23;;;;;;;;;;;18.30;56.60;;;;;;5039535;28;37621;-62
2022/04/22 09:47:09;;;;;;;;;;;18.40;57.40;;;;;;5037165;28;37038;-62
2022/04/22 09:49:39;;;;;;;;;;;18.40;59.70;;;;;;5038032;28;37787;-62
2022/04/22 09:52:06;;;;;;;;;;;18.40;58.00;;;;;;5038261;28;37107;-62
2022/04/22 09:54:35;;;;;;;;;;;18.50;58.90;;;;;;5038366;28;36441;-62
2022/04/22 09:57:03;;;;;;;;;;;18.60;55.10;;;;;;5037742;28;37374;-62
2022/04/22 09:59:32;;;;;;;;;;;18.50;55.80;;;;;;5051053;28;34079;-63
2022/04/22 10:02:00;;;;;;;;;;;18.50;57.20;;;;;;5038237;28;37387;-62
2022/04/22 10:04:28;;;;;;;;;;;18.50;57.00;;;;;;5037661;28;36907;-62
2022/04/22 10:06:56;;;;;;;;;;;18.50;57.50;;;;;;5037997;28;37137;-62
2022/04/22 10:09:23;;;;;;;;;;;18.50;56.20;;;;;;5039033;28;37150;-56
2022/04/22 10:11:54;;;;;;;;;;;18.40;57.10;;;;;;5037061;28;37379;-56
2022/04/22 10:14:32;;;;;;;;;;;18.40;57.40;;;;;;5037858;28;37010;-56
2022/04/22 10:16:59;;;;;;;;;;;18.30;57.00;;;;;;5038554;28;36831;-55
2022/04/22 10:19:27;;;;;;;;;;;18.30;59.00;;;;;;5038214;28;36466;-55
2022/04/22 10:21:54;;;;;;;;;;;18.20;54.50;;;;;;5038572;28;39830;-55
2022/04/22 10:24:21;;;;;;;;;;;18.20;58.50;;;;;;5036648;28;36677;-55
2022/04/22 10:26:49;;;;;;;;;;;18.20;56.80;;;;;;5038376;28;36402;-55
2022/04/22 10:29:18;;;;;;;;;;;18.10;54.50;;;;;;5038838;28;37810;-56
2022/04/22 10:31:45;;;;;;;;;;;18.00;56.80;;;;;;5037709;28;36992;-56
2022/04/22 10:34:12;;;;;;;;;;;17.90;55.20;;;;;;5037103;28;37623;-56
2022/04/22 10:36:40;;;;;;;;;;;17.80;56.70;;;;;;5037901;28;36221;-63
2022/04/22 10:39:08;;;;;;;;;;;17.70;59.40;;;;;;5038055;28;38095;-62
2022/04/22 10:41:44;;;;;;;;;;;17.70;59.00;;;;;;5038133;28;37646;-62
2022/04/22 10:47:14;;;;;;;;;;;17.70;58.80;;;;;;5038784;28;37267;-63
2022/04/22 10:49:42;;;;;;;;;;;17.70;57.30;;;;;;5037107;28;37924;-62
2022/04/22 10:52:13;;;;;;;;;;;17.60;58.30;;;;;;5038531;28;38195;-63
2022/04/22 10:55:00;;;;;;;;;;;17.60;58.20;;;;;;5037509;28;36561;-62
2022/04/22 10:57:29;;;;;;;;;;;17.70;59.60;;;;;;5038326;28;36600;-62
2022/04/22 11:00:03;;;;;;;;;;;17.60;58.80;;;;;;5039786;28;37820;-62
2022/04/22 11:02:32;;;;;;;;;;;17.60;59.00;;;;;;5037879;28;39620;-62
2022/04/22 11:05:19;;;;;;;;;;;17.60;58.50;;;;;;5041722;28;39354;-63
2022/04/22 11:07:55;;;;;;;;;;;17.50;59.70;;;;;;5041697;28;36747;-63
2022/04/22 11:10:23;;;;;;;;;;;17.40;59.70;;;;;;5041633;28;37742;-62
2022/04/22 11:12:51;;;;;;;;;;;17.50;60.90;;;;;;5040397;28;37340;-63
2022/04/22 11:15:33;;;;;;;;;;;17.40;59.50;;;;;;5041460;28;38179;-63
2022/04/22 11:18:01;;;;;;;;;;;17.50;60.50;;;;;;5042335;28;36360;-55
2022/04/22 11:20:29;;;;;;;;;;;17.50;60.00;;;;;;5041718;28;38406;-62
2022/04/22 11:22:57;;;;;;;;;;;17.50;59.90;;;;;;5041924;28;38840;-62
2022/04/22 11:25:25;;;;;;;;;;;17.50;59.40;;;;;;5040972;28;36445;-61
2022/04/22 11:27:54;;;;;;;;;;;17.60;59.00;;;;;;5039743;28;35875;-63
2022/04/22 11:30:22;;;;;;;;;;;17.60;57.80;;;;;;5041469;28;38466;-63
2022/04/22 11:32:52;;;;;;;;;;;17.50;58.00;;;;;;5040438;28;38860;-62
2022/04/22 11:35:22;;;;;;;;;;;17.50;58.70;;;;;;5041488;28;37526;-62
2022/04/22 11:37:59;;;;;;;;;;;17.50;58.30;;;;;;5041645;28;38227;-63
2022/04/22 11:40:26;;;;;;;;;;;17.50;57.80;;;;;;5034057;28;37536;-63
2022/04/22 11:42:54;;;;;;;;;;;17.50;58.00;;;;;;5039097;28;36211;-63
2022/04/22 11:45:22;;;;;;;;;;;17.50;59.90;;;;;;5040649;28;38152;-62
2022/04/22 11:47:49;;;;;;;;;;;17.50;59.50;;;;;;5040045;28;38892;-63
2022/04/22 11:50:19;;;;;;;;;;;17.40;59.20;;;;;;5040252;28;39861;-63
2022/04/22 11:52:53;;;;;;;;;;;17.40;58.70;;;;;;5040296;28;39187;-63
2022/04/22 11:55:21;;;;;;;;;;;17.30;60.10;;;;;;5039948;28;37733;-62
2022/04/22 11:57:49;;;;;;;;;;;17.20;57.80;;;;;;5040577;28;36320;-63
2022/04/22 12:05:47;;;;;;;;;;;17.20;58.50;;;;;;5040715;28;37831;-62
2022/04/22 12:08:16;;;;;;;;;;;17.10;56.50;;;;;;5039290;28;36744;-63
2022/04/22 12:10:44;;;;;;;;;;;17.20;59.70;;;;;;5038796;28;37907;-63
2022/04/22 12:13:13;;;;;;;;;;;17.20;60.70;;;;;;5039778;28;37151;-63
2022/04/22 12:15:43;;;;;;;;;;;17.20;61.90;;;;;;5038985;28;36323;-56
2022/04/22 12:18:25;;;;;;;;;;;17.30;60.40;;;;;;5032591;28;36597;-59
2022/04/22 12:20:52;;;;;;;;;;;17.30;60.20;;;;;;5037508;28;37880;-62
2022/04/22 12:23:21;;;;;;;;;;;17.20;60.10;;;;;;5039044;28;38944;-56
2022/04/22 12:25:55;;;;;;;;;;;17.30;59.60;;;;;;5037008;28;36925;-56
2022/04/22 12:28:22;;;;;;;;;;;17.30;58.70;;;;;;5039141;28;36796;-56
2022/04/22 12:30:49;;;;;;;;;;;17.20;58.10;;;;;;5038028;28;37702;-57
2022/04/22 12:33:20;;;;;;;;;;;17.30;57.50;;;;;;5038354;28;36701;-57
2022/04/22 12:35:49;;;;;;;;;;;17.20;59.10;;;;;;5037507;28;35497;-56
2022/04/22 12:38:17;;;;;;;;;;;17.20;56.80;;;;;;5038321;28;35318;-63
2022/04/22 12:40:47;;;;;;;;;;;17.20;60.40;;;;;;5038770;28;36289;-63
2022/04/22 12:43:28;;;;;;;;;;;17.20;61.30;;;;;;5039806;28;37322;-56
2022/04/22 12:54:16;;;;;;;;;;;17.10;61.30;;;;;;5038761;28;37238;-56
2022/04/22 12:56:54;;;;;;;;;;;17.10;61.10;;;;;;5036547;28;36834;-58
2022/04/22 12:59:21;;;;;;;;;;;17.10;61.20;;;;;;5037958;28;38790;-63
2022/04/22 13:01:49;;;;;;;;;;;17.10;60.50;;;;;;5037790;28;38315;-62
2022/04/22 13:04:23;;;;;;;;;;;17.10;59.90;;;;;;5036990;28;36204;-63
2022/04/22 13:06:50;;;;;;;;;;;17.10;59.50;;;;;;5037250;28;37337;-63
2022/04/22 13:09:18;;;;;;;;;;;17.10;60.30;;;;;;5038079;28;37546;-63
2022/04/22 13:11:46;;;;;;;;;;;17.10;62.10;;;;;;5035005;28;38651;-56
2022/04/22 13:14:15;;;;;;;;;;;17.10;60.90;;;;;;5036259;28;38983;-56
2022/04/22 13:16:42;;;;;;;;;;;17.10;62.70;;;;;;5037345;28;35687;-57
2022/04/22 13:19:11;;;;;;;;;;;17.10;62.70;;;;;;5036171;28;37771;-55
2022/04/22 13:21:39;;;;;;;;;;;17.10;62.20;;;;;;5037401;28;37153;-56
2022/04/22 13:24:06;;;;;;;;;;;17.10;62.00;;;;;;5034678;28;37218;-56
2022/04/22 13:26:33;;;;;;;;;;;17.10;61.50;;;;;;5037609;28;36553;-56
2022/04/22 13:29:01;;;;;;;;;;;17.20;64.30;;;;;;5037256;28;36629;-56
2022/04/22 13:31:29;;;;;;;;;;;17.10;62.40;;;;;;5037289;28;38432;-56
2022/04/22 13:34:00;;;;;;;;;;;17.10;61.60;;;;;;5036942;28;38493;-55
2022/04/22 13:36:27;;;;;;;;;;;17.00;61.40;;;;;;5037581;28;36878;-55
2022/04/22 13:38:54;;;;;;;;;;;16.90;64.30;;;;;;5036231;28;36775;-56
2022/04/22 13:41:21;;;;;;;;;;;17.00;66.60;;;;;;5037989;28;37621;-62
2022/04/22 13:43:49;;;;;;;;;;;17.00;63.90;;;;;;5037904;28;36882;-61
2022/04/22 13:54:41;;;;;;;;;;;17.00;63.70;;;;;;5032033;28;36182;-62
2022/04/22 13:57:08;;;;;;;;;;;17.10;64.90;;;;;;5036478;28;36483;-62
2022/04/22 13:59:35;;;;;;;;;;;17.00;61.40;;;;;;5035733;28;35658;-63
2022/04/22 14:02:02;;;;;;;;;;;17.00;64.30;;;;;;5038750;28;37539;-62
2022/04/22 14:04:32;;;;;;;;;;;17.10;66.90;;;;;;5036196;28;36278;-62
2022/04/22 14:06:59;;;;;;;;;;;17.20;64.60;;;;;;5034397;28;37655;-61
2022/04/22 14:09:26;;;;;;;;;;;17.20;64.70;;;;;;5036270;28;37159;-62
2022/04/22 14:11:53;;;;;;;;;;;17.30;63.90;;;;;;5038399;28;38066;-61
2022/04/22 14:14:22;;;;;;;;;;;17.30;62.50;;;;;;5036675;28;38756;-62
2022/04/22 14:16:50;;;;;;;;;;;17.20;62.00;;;;;;5035842;28;35555;-61
2022/04/22 14:19:17;;;;;;;;;;;17.30;65.10;;;;;;5037330;28;36937;-62
2022/04/22 14:21:46;;;;;;;;;;;17.30;64.80;;;;;;5036646;28;37894;-62
2022/04/22 14:24:13;;;;;;;;;;;17.30;64.20;;;;;;5036618;28;38526;-62
2022/04/22 14:26:40;;;;;;;;;;;17.40;64.50;;;;;;5037452;28;36789;-56
2022/04/22 14:29:07;;;;;;;;;;;17.30;63.80;;;;;;5037245;28;36564;-56
2022/04/22 14:31:34;;;;;;;;;;;17.30;63.40;;;;;;5038659;28;39518;-55
2022/04/22 14:34:02;;;;;;;;;;;17.20;63.10;;;;;;5037658;28;37756;-56
2022/04/22 14:36:29;;;;;;;;;;;17.20;65.20;;;;;;5037758;28;37642;-56
2022/04/22 14:38:57;;;;;;;;;;;17.20;66.30;;;;;;5040477;28;36797;-56
2022/04/22 14:41:24;;;;;;;;;;;17.30;62.10;;;;;;5039159;28;36590;-54
2022/04/22 14:43:51;;;;;;;;;;;17.20;63.80;;;;;;5040717;28;38164;-54
2022/04/22 14:46:19;;;;;;;;;;;17.20;64.10;;;;;;5040917;28;35663;-55
2022/04/22 14:48:47;;;;;;;;;;;17.20;63.50;;;;;;5039624;28;37167;-55
2022/04/22 14:51:14;;;;;;;;;;;17.20;64.00;;;;;;5038116;28;37924;-55
2022/04/22 14:53:41;;;;;;;;;;;17.20;63.40;;;;;;5040519;28;38862;-56
2022/04/22 14:56:09;;;;;;;;;;;17.20;65.30;;;;;;5039839;28;38747;-55
2022/04/22 14:58:36;;;;;;;;;;;17.10;62.70;;;;;;5040747;28;36615;-55
2022/04/22 15:01:03;;;;;;;;;;;17.20;62.20;;;;;;5040701;28;39161;-56
2022/04/22 15:03:30;;;;;;;;;;;17.30;63.50;;;;;;5039009;28;37544;-55
2022/04/22 15:05:57;;;;;;;;;;;17.30;63.80;;;;;;5037495;28;36620;-55
2022/04/22 15:08:24;;;;;;;;;;;17.30;61.70;;;;;;5038232;28;37164;-56
2022/04/22 15:10:51;;;;;;;;;;;17.20;61.40;;;;;;5039967;28;36567;-55
2022/04/22 15:13:20;;;;;;;;;;;17.10;60.30;;;;;;5040408;28;38647;-56
2022/04/22 15:15:47;;;;;;;;;;;17.10;61.80;;;;;;5041208;28;37055;-56
2022/04/22 15:26:28;;;;;;;;;;;17.20;61.60;;;;;;5039417;28;38196;-55
2022/04/22 15:28:56;;;;;;;;;;;17.20;62.40;;;;;;5039528;28;37203;-56
2022/04/22 15:31:23;;;;;;;;;;;17.10;60.30;;;;;;5039900;28;38589;-55
2022/04/22 15:33:50;;;;;;;;;;;17.10;62.40;;;;;;5038274;28;38459;-56
2022/04/22 15:36:17;;;;;;;;;;;17.10;60.70;;;;;;5039056;28;36590;-55
2022/04/22 15:38:45;;;;;;;;;;;17.10;60.70;;;;;;5037285;28;36610;-55
2022/04/22 15:41:13;;;;;;;;;;;17.00;62.50;;;;;;5038994;28;37608;-56
2022/04/22 15:43:41;;;;;;;;;;;17.00;60.20;;;;;;5037678;28;38188;-56
2022/04/22 15:46:10;;;;;;;;;;;17.00;60.80;;;;;;5038557;28;35440;-55
2022/04/22 15:48:37;;;;;;;;;;;17.00;60.20;;;;;;5039357;28;35368;-55
2022/04/22 15:51:05;;;;;;;;;;;17.00;61.70;;;;;;5036835;28;37791;-56
2022/04/22 15:53:32;;;;;;;;;;;16.90;62.70;;;;;;5036857;28;37326;-62